createdAt,value
2022-10-07T00:01:07.365Z,27.80
2022-10-07T00:03:35.561Z,26.70
2022-10-07T00:06:17.582Z,27.98
2022-10-07T00:08:48.298Z,25.35
2022-10-07T00:11:21.624Z,24.88
2022-10-07T00:13:52.891Z,26.13
2022-10-07T00:16:26.335Z,27.40
2022-10-07T00:18:58.203Z,26.52
2022-10-07T00:21:28.974Z,24.50
2022-10-07T00:23:56.833Z,25.83
2022-10-07T00:26:26.132Z,25.27
2022-10-07T00:28:55.341Z,27.92
2022-10-07T00:31:25.592Z,24.00
2022-10-07T00:33:55.295Z,24.02
2022-10-07T00:36:32.085Z,22.73
2022-10-07T00:39:05.080Z,24.88
2022-10-07T00:41:35.976Z,24.98
2022-10-07T00:44:35.870Z,24.08
2022-10-07T00:47:06.429Z,25.80
2022-10-07T00:49:50.821Z,22.45
2022-10-07T00:52:22.083Z,23.35
2022-10-07T00:54:53.486Z,24.58
2022-10-07T00:57:24.469Z,23.25
2022-10-07T00:59:55.588Z,23.13
2022-10-07T01:02:25.302Z,24.65
2022-10-07T01:04:54.672Z,24.75
2022-10-07T01:07:22.378Z,27.90
2022-10-07T01:09:51.479Z,23.98
2022-10-07T01:12:59.960Z,24.63
2022-10-07T01:16:03.451Z,24.15
2022-10-07T01:18:52.847Z,26.38
2022-10-07T01:21:58.818Z,25.50
2022-10-07T01:24:29.764Z,27.80
2022-10-07T01:27:05.388Z,24.35
2022-10-07T01:32:29.668Z,24.90
2022-10-07T01:34:58.540Z,22.98
2022-10-07T01:37:31.073Z,24.30
2022-10-07T01:40:05.235Z,23.95
2022-10-07T01:42:33.786Z,23.70
2022-10-07T01:45:03.176Z,23.48
2022-10-07T01:47:31.034Z,22.67
2022-10-07T01:49:58.550Z,23.35
2022-10-07T01:53:04.433Z,25.60
2022-10-07T01:55:55.149Z,22.50
2022-10-07T01:58:44.633Z,25.15
2022-10-07T02:01:22.892Z,27.33
2022-10-07T02:04:04.838Z,25.13
2022-10-07T02:07:00.546Z,22.58
2022-10-07T02:09:38.856Z,22.08
2022-10-07T02:12:18.196Z,22.38
2022-10-07T02:14:54.633Z,21.50
2022-10-07T02:17:27.259Z,22.77
2022-10-07T02:19:56.622Z,22.95
2022-10-07T02:22:28.443Z,23.98
2022-10-07T02:24:59.213Z,23.48
2022-10-07T02:27:34.995Z,23.20
2022-10-07T02:30:11.674Z,21.27
2022-10-07T02:32:44.978Z,21.92
2022-10-07T02:35:23.317Z,19.85
2022-10-07T02:37:56.334Z,19.80
2022-10-07T02:40:29.024Z,20.77
2022-10-07T02:43:00.911Z,19.20
2022-10-07T02:45:39.677Z,19.75
2022-10-07T02:48:26.246Z,18.50
2022-10-07T02:51:00.573Z,18.63
2022-10-07T02:53:32.396Z,19.45
2022-10-07T02:56:02.569Z,19.73
2022-10-07T02:58:30.840Z,17.88
2022-10-07T03:01:00.705Z,17.33
2022-10-07T03:03:30.524Z,18.13
2022-10-07T03:06:05.269Z,18.23
2022-10-07T03:08:33.771Z,17.55
2022-10-07T03:11:02.361Z,17.15
2022-10-07T03:13:31.352Z,17.70
2022-10-07T03:16:05.154Z,17.55
2022-10-07T03:18:32.848Z,16.00
2022-10-07T03:21:22.209Z,17.35
2022-10-07T03:23:54.074Z,17.05
2022-10-07T03:26:24.986Z,17.10
2022-10-07T03:28:54.273Z,17.17
2022-10-07T03:31:22.169Z,17.08
2022-10-07T03:33:52.153Z,17.73
2022-10-07T03:36:20.966Z,16.92
2022-10-07T03:38:49.320Z,18.42
2022-10-07T03:41:19.100Z,20.60
2022-10-07T03:43:49.607Z,19.45
2022-10-07T03:46:21.248Z,20.33
2022-10-07T03:48:50.244Z,17.58
2022-10-07T03:51:18.043Z,20.10
2022-10-07T03:53:46.182Z,18.05
2022-10-07T03:56:13.814Z,18.38
2022-10-07T03:58:43.316Z,19.70
2022-10-07T04:01:15.251Z,18.35
2022-10-07T04:03:53.405Z,18.35
2022-10-07T04:06:20.867Z,17.02
2022-10-07T04:08:55.413Z,18.05
2022-10-07T04:11:24.397Z,16.15
2022-10-07T04:13:55.742Z,14.15
2022-10-07T04:16:26.785Z,14.13
2022-10-07T04:18:56.554Z,13.35
2022-10-07T04:21:25.582Z,14.18
2022-10-07T04:23:53.079Z,12.32
2022-10-07T04:26:20.773Z,12.77
2022-10-07T04:28:50.188Z,13.15
2022-10-07T04:31:20.708Z,12.07
2022-10-07T04:33:53.721Z,13.65
2022-10-07T04:36:27.309Z,16.35
2022-10-07T04:39:02.370Z,13.00
2022-10-07T04:41:34.749Z,12.63
2022-10-07T04:44:03.344Z,13.40
2022-10-07T04:46:36.319Z,13.98
2022-10-07T04:49:11.972Z,11.73
2022-10-07T04:51:39.498Z,15.55
2022-10-07T04:54:08.245Z,12.48
2022-10-07T04:56:41.747Z,11.70
2022-10-07T04:59:12.266Z,11.60
2022-10-07T05:01:40.665Z,11.38
2022-10-07T05:04:10.946Z,12.52
2022-10-07T05:06:38.502Z,12.55
2022-10-07T05:09:06.511Z,11.65
2022-10-07T05:11:38.058Z,11.18
2022-10-07T05:14:11.175Z,10.50
2022-10-07T05:16:39.858Z,11.30
2022-10-07T05:19:10.579Z,10.43
2022-10-07T05:21:38.718Z,11.02
2022-10-07T05:24:06.275Z,10.30
2022-10-07T05:26:37.757Z,10.40
2022-10-07T05:29:07.774Z,13.13
2022-10-07T05:31:39.417Z,12.13
2022-10-07T05:34:08.309Z,9.60
2022-10-07T05:36:36.493Z,11.23
2022-10-07T05:39:06.190Z,10.15
2022-10-07T05:41:45.662Z,11.38
2022-10-07T05:44:15.484Z,9.38
2022-10-07T05:46:43.613Z,13.25
2022-10-07T05:49:12.930Z,10.52
2022-10-07T05:51:42.168Z,10.45
2022-10-07T05:54:09.824Z,11.15
2022-10-07T05:56:41.596Z,9.57
2022-10-07T05:59:10.569Z,11.13
2022-10-07T06:01:43.019Z,11.48
2022-10-07T06:04:15.682Z,10.60
2022-10-07T06:06:47.093Z,10.20
2022-10-07T06:09:33.746Z,9.57
2022-10-07T06:12:24.566Z,11.90
2022-10-07T06:14:54.109Z,9.13
2022-10-07T06:17:21.626Z,9.98
2022-10-07T06:19:51.497Z,10.63
2022-10-07T06:22:20.225Z,10.90
2022-10-07T06:24:48.287Z,11.50
2022-10-07T06:27:16.374Z,11.18
2022-10-07T06:29:45.245Z,10.45
2022-10-07T06:32:12.752Z,9.05
2022-10-07T06:34:41.337Z,9.90
2022-10-07T06:37:09.651Z,9.65
2022-10-07T06:39:37.256Z,10.63
2022-10-07T06:42:04.953Z,11.80
2022-10-07T06:44:53.936Z,11.95
2022-10-07T06:47:23.505Z,12.88
2022-10-07T06:49:51.670Z,13.57
2022-10-07T06:52:19.325Z,13.32
2022-10-07T06:54:47.780Z,15.07
2022-10-07T06:57:43.782Z,16.90
2022-10-07T07:00:04.431Z,11.07
2022-10-07T07:02:33.612Z,15.65
2022-10-07T07:05:04.681Z,15.15
2022-10-07T07:07:32.284Z,16.70
2022-10-07T07:10:00.122Z,12.00
2022-10-07T07:12:29.030Z,12.50
2022-10-07T07:14:56.631Z,12.13
2022-10-07T07:17:24.190Z,10.35
2022-10-07T07:19:51.730Z,11.40
2022-10-07T07:22:20.127Z,12.80
2022-10-07T07:24:49.573Z,11.07
2022-10-07T07:27:17.054Z,8.63
2022-10-07T07:29:45.428Z,10.57
2022-10-07T07:32:13.577Z,11.18
2022-10-07T07:34:44.065Z,8.25
2022-10-07T07:37:17.981Z,11.50
2022-10-07T07:39:49.287Z,10.98
2022-10-07T07:42:19.161Z,8.55
2022-10-07T07:44:48.587Z,9.45
2022-10-07T07:47:17.689Z,12.88
2022-10-07T07:49:46.768Z,10.55
2022-10-07T07:52:22.562Z,10.52
2022-10-07T07:54:51.960Z,9.07
2022-10-07T07:57:20.904Z,8.38
2022-10-07T07:59:48.392Z,10.38
2022-10-07T08:02:18.513Z,8.50
2022-10-07T08:04:49.351Z,7.38
2022-10-07T08:07:17.504Z,8.70
2022-10-07T08:09:47.338Z,8.60
2022-10-07T08:12:14.913Z,6.05
2022-10-07T08:14:43.309Z,9.57
2022-10-07T08:17:11.218Z,6.65
2022-10-07T08:19:38.676Z,6.40
2022-10-07T08:22:07.255Z,6.40
2022-10-07T08:24:35.915Z,4.65
2022-10-07T08:27:03.350Z,5.85
2022-10-07T08:29:31.117Z,6.68
2022-10-07T08:31:58.524Z,8.60
2022-10-07T08:34:26.339Z,7.50
2022-10-07T08:37:02.605Z,9.77
2022-10-07T08:39:31.213Z,9.32
2022-10-07T08:42:13.185Z,5.72
2022-10-07T08:44:44.047Z,7.10
2022-10-07T08:47:11.365Z,6.32
2022-10-07T08:49:49.920Z,3.42
2022-10-07T08:52:26.556Z,4.20
2022-10-07T08:54:54.127Z,2.75
2022-10-07T08:57:27.688Z,3.50
2022-10-07T08:59:59.329Z,4.80
2022-10-07T09:02:44.771Z,5.50
2022-10-07T09:05:21.103Z,3.47
2022-10-07T09:07:53.865Z,5.53
2022-10-07T09:10:38.581Z,2.17
2022-10-07T09:13:14.038Z,3.03
2022-10-07T09:16:11.258Z,4.15
2022-10-07T09:18:50.945Z,2.63
2022-10-07T09:21:23.510Z,5.07
2022-10-07T09:23:57.415Z,2.28
2022-10-07T09:26:26.122Z,1.95
2022-10-07T09:28:53.538Z,2.88
2022-10-07T09:31:24.952Z,5.35
2022-10-07T09:33:54.366Z,2.13
2022-10-07T09:36:21.805Z,2.50
2022-10-07T09:38:52.564Z,2.70
2022-10-07T09:41:29.059Z,2.03
2022-10-07T09:44:25.515Z,2.35
2022-10-07T09:46:57.410Z,5.25
2022-10-07T09:49:30.783Z,1.65
2022-10-07T09:52:20.098Z,1.80
2022-10-07T09:54:49.297Z,4.43
2022-10-07T09:57:27.237Z,2.25
2022-10-07T10:00:22.426Z,2.88
2022-10-07T10:05:38.697Z,3.22
2022-10-07T10:08:23.180Z,3.17
2022-10-07T10:10:54.320Z,3.40
2022-10-07T10:13:36.750Z,2.97
2022-10-07T10:16:07.328Z,2.63
2022-10-07T10:18:34.759Z,5.40
2022-10-07T10:21:14.656Z,2.28
2022-10-07T10:23:47.617Z,3.03
2022-10-07T10:26:34.363Z,3.30
2022-10-07T10:29:15.153Z,7.50
2022-10-07T10:32:00.929Z,3.58
2022-10-07T10:34:50.034Z,3.00
2022-10-07T10:38:05.401Z,4.35
2022-10-07T10:40:40.743Z,4.95
2022-10-07T10:43:27.255Z,3.50
2022-10-07T10:46:25.845Z,3.50
2022-10-07T10:49:25.506Z,2.83
2022-10-07T10:52:18.613Z,2.03
2022-10-07T10:55:03.201Z,3.80
2022-10-07T10:58:11.894Z,2.20
2022-10-07T11:00:42.032Z,3.65
2022-10-07T11:03:58.806Z,3.25
2022-10-07T11:06:28.612Z,3.08
2022-10-07T11:08:58.797Z,4.60
2022-10-07T11:11:28.036Z,3.65
2022-10-07T11:14:01.889Z,5.50
2022-10-07T11:16:56.634Z,3.97
2022-10-07T11:19:30.787Z,5.38
2022-10-07T11:22:00.648Z,2.88
2022-10-07T11:24:42.949Z,4.97
2022-10-07T11:27:26.564Z,4.95
2022-10-07T11:30:00.557Z,3.13
2022-10-07T11:32:43.223Z,4.10
2022-10-07T11:35:32.121Z,2.83
2022-10-07T11:38:13.280Z,3.40
2022-10-07T11:40:49.558Z,3.22
2022-10-07T11:43:30.679Z,4.18
2022-10-07T11:46:11.149Z,2.70
2022-10-07T11:48:53.871Z,6.40
2022-10-07T11:51:29.330Z,2.60
2022-10-07T11:54:01.106Z,4.75
2022-10-07T11:56:39.261Z,3.63
2022-10-07T11:59:07.651Z,4.93
2022-10-07T12:01:35.077Z,2.88
2022-10-07T12:04:20.906Z,3.95
2022-10-07T12:07:25.845Z,4.55
2022-10-07T12:09:54.512Z,6.32
2022-10-07T12:12:24.777Z,4.30
2022-10-07T12:15:00.655Z,4.10
2022-10-07T12:17:30.132Z,3.58
2022-10-07T12:20:46.267Z,4.10
2022-10-07T12:23:22.555Z,3.70
2022-10-07T12:26:01.104Z,3.97
2022-10-07T12:28:37.375Z,6.55
2022-10-07T12:31:26.223Z,5.88
2022-10-07T12:34:10.637Z,5.13
2022-10-07T12:36:41.520Z,3.88
2022-10-07T12:39:09.743Z,4.45
2022-10-07T12:41:47.221Z,4.57
2022-10-07T12:44:26.344Z,5.53
2022-10-07T12:47:13.873Z,2.67
2022-10-07T12:49:52.111Z,4.32
2022-10-07T12:52:53.796Z,5.88
2022-10-07T12:55:29.673Z,3.45
2022-10-07T12:58:16.745Z,2.40
2022-10-07T13:01:14.428Z,3.22
2022-10-07T13:03:57.039Z,7.63
2022-10-07T13:06:57.875Z,5.00
2022-10-07T13:10:14.272Z,4.63
2022-10-07T13:12:55.917Z,3.63
2022-10-07T13:15:26.381Z,4.00
2022-10-07T13:18:16.391Z,4.50
2022-10-07T13:20:55.979Z,4.53
2022-10-07T13:23:29.057Z,5.30
2022-10-07T13:25:59.237Z,6.65
2022-10-07T13:28:51.760Z,5.38
2022-10-07T13:31:22.564Z,4.10
2022-10-07T13:33:51.330Z,4.28
2022-10-07T13:36:25.921Z,4.82
2022-10-07T13:39:10.160Z,3.88
2022-10-07T13:41:42.547Z,5.85
2022-10-07T13:44:14.187Z,4.55
2022-10-07T13:47:07.456Z,5.80
2022-10-07T13:49:40.661Z,4.38
2022-10-07T13:52:33.732Z,6.13
2022-10-07T13:55:01.389Z,5.40
2022-10-07T13:57:31.267Z,4.35
2022-10-07T14:00:00.061Z,4.47
2022-10-07T14:02:27.831Z,2.78
2022-10-07T14:05:17.723Z,2.95
2022-10-07T14:07:45.157Z,3.72
2022-10-07T14:10:12.729Z,3.83
2022-10-07T14:12:46.293Z,5.95
2022-10-07T14:15:25.942Z,3.80
2022-10-07T14:18:00.280Z,3.70
2022-10-07T14:20:44.871Z,3.63
2022-10-07T14:23:34.324Z,3.22
2022-10-07T14:26:11.121Z,4.40
2022-10-07T14:28:40.061Z,2.75
2022-10-07T14:31:26.145Z,4.07
2022-10-07T14:34:32.504Z,5.18
2022-10-07T14:37:04.043Z,5.10
2022-10-07T14:39:40.350Z,6.03
2022-10-07T14:42:18.205Z,7.38
2022-10-07T14:44:46.208Z,3.70
2022-10-07T14:47:25.041Z,6.55
2022-10-07T14:49:53.797Z,3.67
2022-10-07T14:52:29.940Z,4.97
2022-10-07T14:54:59.146Z,8.75
2022-10-07T14:57:27.065Z,5.03
2022-10-07T14:59:55.139Z,4.95
2022-10-07T15:02:22.659Z,4.95
2022-10-07T15:05:14.982Z,5.38
2022-10-07T15:07:42.546Z,4.05
2022-10-07T15:10:18.765Z,4.82
2022-10-07T15:12:46.460Z,3.58
2022-10-07T15:15:15.308Z,3.55
2022-10-07T15:17:44.334Z,5.03
2022-10-07T15:20:14.834Z,6.00
2022-10-07T15:22:42.931Z,8.95
2022-10-07T15:25:12.078Z,3.72
2022-10-07T15:27:40.023Z,8.00
2022-10-07T15:30:07.961Z,6.65
2022-10-07T15:32:35.349Z,6.13
2022-10-07T15:35:02.823Z,7.95
2022-10-07T15:37:30.248Z,5.82
2022-10-07T15:39:58.822Z,4.43
2022-10-07T15:42:28.480Z,7.28
2022-10-07T15:45:10.193Z,2.80
2022-10-07T15:47:38.757Z,6.65
2022-10-07T15:50:07.012Z,5.25
2022-10-07T15:52:34.527Z,7.47
2022-10-07T15:55:08.368Z,5.35
2022-10-07T15:57:35.705Z,6.05
2022-10-07T16:00:04.770Z,4.68
2022-10-07T16:02:39.339Z,6.57
2022-10-07T16:05:07.079Z,7.63
2022-10-07T16:07:34.408Z,5.60
2022-10-07T16:10:01.828Z,6.75
2022-10-07T16:12:29.356Z,7.10
2022-10-07T16:14:56.761Z,4.93
2022-10-07T16:17:24.490Z,4.93
2022-10-07T16:19:51.924Z,6.18
2022-10-07T16:22:19.687Z,4.10
2022-10-07T16:24:47.215Z,3.85
2022-10-07T16:27:14.823Z,4.35
2022-10-07T16:30:00.565Z,6.68
2022-10-07T16:32:27.956Z,4.70
2022-10-07T16:34:55.407Z,5.53
2022-10-07T16:37:22.793Z,5.15
2022-10-07T16:39:50.164Z,5.75
2022-10-07T16:42:17.519Z,4.60
2022-10-07T16:44:50.601Z,4.55
2022-10-07T16:47:18.362Z,5.25
2022-10-07T16:49:46.252Z,6.95
2022-10-07T16:52:14.226Z,4.55
2022-10-07T16:54:41.810Z,3.95
2022-10-07T16:57:09.220Z,3.33
2022-10-07T16:59:36.861Z,4.13
2022-10-07T17:02:06.322Z,5.60
2022-10-07T17:04:33.690Z,4.22
2022-10-07T17:07:02.065Z,6.65
2022-10-07T17:09:29.384Z,5.40
2022-10-07T17:11:56.791Z,5.97
2022-10-07T17:14:24.356Z,7.03
2022-10-07T17:16:56.681Z,8.43
2022-10-07T17:19:26.927Z,6.20
2022-10-07T17:21:55.588Z,5.35
2022-10-07T17:24:24.054Z,5.72
2022-10-07T17:26:53.076Z,4.70
2022-10-07T17:29:21.836Z,6.28
2022-10-07T17:31:50.765Z,6.03
2022-10-07T17:34:20.458Z,6.25
2022-10-07T17:36:49.348Z,5.25
2022-10-07T17:39:19.116Z,7.13
2022-10-07T17:41:47.320Z,5.97
2022-10-07T17:44:15.036Z,6.32
2022-10-07T17:46:42.968Z,7.55
2022-10-07T17:49:14.631Z,7.50
2022-10-07T17:51:43.390Z,8.63
2022-10-07T17:54:13.424Z,6.40
2022-10-07T17:56:42.500Z,8.30
2022-10-07T17:59:10.002Z,6.57
2022-10-07T18:01:37.905Z,8.32
2022-10-07T18:04:07.776Z,8.23
2022-10-07T18:06:37.284Z,8.65
2022-10-07T18:09:06.944Z,8.98
2022-10-07T18:11:53.352Z,7.85
2022-10-07T18:14:39.101Z,8.55
2022-10-07T18:19:35.423Z,6.28
2022-10-07T18:22:05.935Z,4.55
2022-10-07T18:24:33.515Z,7.70
2022-10-07T18:27:01.837Z,8.98
2022-10-07T18:29:38.161Z,7.18
2022-10-07T18:32:06.970Z,6.55
2022-10-07T18:34:34.361Z,11.43
2022-10-07T18:37:01.864Z,6.75
2022-10-07T18:39:29.749Z,11.40
2022-10-07T18:41:57.960Z,6.45
2022-10-07T18:44:26.108Z,5.85
2022-10-07T18:46:53.597Z,6.00
2022-10-07T18:55:41.134Z,5.65
2022-10-07T18:58:12.813Z,8.48
2022-10-07T19:00:44.208Z,7.32
2022-10-07T19:03:12.060Z,8.18
2022-10-07T19:05:46.287Z,9.45
2022-10-07T19:08:18.745Z,8.00
2022-10-07T19:10:48.284Z,6.78
2022-10-07T19:16:25.501Z,7.35
2022-10-07T19:18:59.171Z,10.88
2022-10-07T19:21:27.807Z,8.98
2022-10-07T19:24:06.869Z,6.53
2022-10-07T19:26:36.999Z,11.75
2022-10-07T19:29:06.965Z,9.70
2022-10-07T19:31:37.107Z,7.95
2022-10-07T19:34:10.587Z,10.00
2022-10-07T19:36:47.307Z,8.50
2022-10-07T19:39:20.269Z,10.23
2022-10-07T19:42:31.013Z,8.98
2022-10-07T19:45:26.367Z,7.68
2022-10-07T19:47:56.563Z,8.02
2022-10-07T19:50:24.626Z,6.20
2022-10-07T19:52:57.727Z,7.32
2022-10-07T19:56:48.882Z,9.80
2022-10-07T19:59:37.023Z,9.50
2022-10-07T20:02:24.944Z,7.57
2022-10-07T20:05:11.005Z,7.53
2022-10-07T20:10:44.826Z,8.50
2022-10-07T20:13:31.116Z,10.27
2022-10-07T20:16:05.428Z,7.65
2022-10-07T20:18:34.448Z,10.50
2022-10-07T20:21:11.327Z,10.45
2022-10-07T20:23:41.432Z,6.18
2022-10-07T20:26:21.006Z,8.95
2022-10-07T20:28:52.267Z,8.30
2022-10-07T20:31:35.065Z,7.00
2022-10-07T20:34:03.532Z,8.15
2022-10-07T20:36:37.960Z,9.10
2022-10-07T20:39:35.903Z,7.65
2022-10-07T20:42:25.328Z,7.45
2022-10-07T20:51:24.741Z,8.23
2022-10-07T20:53:56.519Z,7.90
2022-10-07T20:56:27.998Z,10.18
2022-10-07T20:58:56.768Z,7.68
2022-10-07T21:01:25.150Z,9.98
2022-10-07T21:03:52.817Z,9.13
2022-10-07T21:06:21.403Z,9.38
2022-10-07T21:08:54.056Z,9.02
2022-10-07T21:11:21.670Z,7.40
2022-10-07T21:13:49.661Z,10.25
2022-10-07T21:16:20.551Z,8.70
2022-10-07T21:18:48.500Z,8.50
2022-10-07T21:21:16.285Z,11.90
2022-10-07T21:23:44.660Z,7.85
2022-10-07T21:26:12.817Z,9.30
2022-10-07T21:28:53.052Z,7.50
2022-10-07T21:31:25.619Z,8.45
2022-10-07T21:33:55.697Z,9.30
2022-10-07T21:36:24.505Z,7.82
2022-10-07T21:38:58.523Z,8.40
2022-10-07T21:41:34.662Z,8.20
2022-10-07T21:44:06.515Z,10.88
2022-10-07T21:46:43.109Z,11.25
2022-10-07T21:49:18.177Z,8.80
2022-10-07T21:54:30.420Z,7.97
2022-10-07T21:56:58.245Z,10.65
2022-10-07T21:59:25.814Z,9.48
2022-10-07T22:01:53.639Z,11.13
2022-10-07T22:04:21.240Z,8.13
2022-10-07T22:07:08.366Z,10.73
2022-10-07T22:09:55.319Z,11.75
2022-10-07T22:12:27.590Z,9.65
2022-10-07T22:14:57.640Z,9.90
2022-10-07T22:17:27.642Z,9.15
2022-10-07T22:19:57.204Z,9.82
2022-10-07T22:22:36.629Z,9.20
2022-10-07T22:25:54.485Z,9.23
2022-10-07T22:35:38.489Z,7.90
2022-10-07T22:43:51.624Z,9.52
2022-10-07T22:46:46.515Z,10.73
2022-10-07T22:49:15.289Z,9.80
2022-10-07T22:51:48.156Z,12.45
2022-10-07T22:54:17.277Z,10.43
2022-10-07T22:56:45.614Z,9.57
2022-10-07T22:59:15.238Z,8.82
2022-10-07T23:01:43.174Z,10.02
2022-10-07T23:04:11.005Z,9.45
2022-10-07T23:06:39.767Z,10.85
2022-10-07T23:09:07.670Z,8.55
2022-10-07T23:11:35.603Z,11.27
2022-10-07T23:14:03.763Z,7.43
2022-10-07T23:16:34.202Z,11.02
2022-10-07T23:19:03.319Z,10.23
2022-10-07T23:21:34.856Z,10.63
2022-10-07T23:24:07.792Z,7.43
2022-10-07T23:26:37.131Z,8.65
2022-10-07T23:29:05.467Z,8.23
2022-10-07T23:31:33.849Z,9.77
2022-10-07T23:34:03.226Z,9.93
2022-10-07T23:36:32.214Z,10.73
2022-10-07T23:39:01.437Z,7.35
2022-10-07T23:41:30.885Z,8.40
2022-10-07T23:44:02.314Z,9.68
2022-10-07T23:46:36.499Z,9.57
2022-10-07T23:49:04.661Z,8.30
2022-10-07T23:51:33.352Z,11.52
2022-10-07T23:54:02.648Z,12.18
2022-10-07T23:56:33.074Z,8.98
2022-10-07T23:59:02.254Z,11.18
